This is the latest recevied weather packets stored in our database for station/object EA1IXY-2. If no packets are shown the sender has not sent any weather packets the latest 10 day(s).
| Time | Temp. | Humidity | Pressure | Rain* | Wind** | Luminosity | Snow |
|---|---|---|---|---|---|---|---|
| 1777639152 | 38.89° C | 17% | 931.8 hPa | - | - | - | - |
| 1777638252 | 38.89° C | 18% | 931.9 hPa | - | - | - | - |
| 1777637353 | 38.89° C | 17% | 932.1 hPa | - | - | - | - |
| 1777635551 | 38.33° C | 18% | 932.4 hPa | - | - | - | - |
| 1777634651 | 38.89° C | 17% | 932.4 hPa | - | - | - | - |
| 1777633751 | 38.89° C | 18% | 932.5 hPa | - | - | - | - |
| 1777632851 | 38.89° C | 18% | 932.6 hPa | - | - | - | - |
| 1777631951 | 38.33° C | 18% | 932.6 hPa | - | - | - | - |
| 1777631051 | 37.78° C | 18% | 931.9 hPa | - | - | - | - |
| 1777630139 | 38.33° C | 18% | 932.6 hPa | - | - | - | - |
| 1777629239 | 38.33° C | 18% | 932.8 hPa | - | - | - | - |
| 1777628339 | 38.89° C | 18% | 932.9 hPa | - | - | - | - |
| 1777627439 | 38.33° C | 18% | 932.8 hPa | - | - | - | - |
| 1777626539 | 38.33° C | 18% | 932.8 hPa | - | - | - | - |
| 1777625638 | 38.33° C | 18% | 932.8 hPa | - | - | - | - |
| 1777624738 | 38.33° C | 18% | 932.7 hPa | - | - | - | - |
| 1777623838 | 38.89° C | 18% | 932.9 hPa | - | - | - | - |
| 1777622938 | 38.33° C | 17% | 932.8 hPa | - | - | - | - |
| 1777622038 | 38.89° C | 18% | 932.9 hPa | - | - | - | - |
| 1777621138 | 38.89° C | 18% | 932.8 hPa | - | - | - | - |
| 1777620238 | 37.22° C | 18% | 931.6 hPa | - | - | - | - |
| 1777619326 | 38.33° C | 18% | 932.8 hPa | - | - | - | - |
| 1777618426 | 37.78° C | 19% | 932.6 hPa | - | - | - | - |
| 1777617526 | 38.33° C | 18% | 932.7 hPa | - | - | - | - |
| 1777616626 | 38.33° C | 18% | 932.6 hPa | - | - | - | - |
* Rain since midnight (hover to see other rain measurements)
** Current wind speed in m/s (hover to see current wind gust speed)